sim
Sign-in with your pilot id or email,
or register
Callsign
Passwort

Schedule Details

Flight Number: EWG1713 (1)
Departure: Edinburgh Airport (EGPH) at 12:35
Arrival: Munich Airport (EDDM) at 14:50
Route: Eurowings Passenger Schedule. Enter filed route here before submitting Pirep.

Weather Information
Getting current METAR information for EGPH 260720Z 25006KT 9999 SCT045 04/02 Q1016
Getting current METAR information for EDDM 260720Z 27012KT 9999 FEW012 BKN017 08/05 Q0999 NOSIG

Schedule Frequency

Route Map